Time;durP1;ratioP1;P1;durP2;ratioP2;P2;SDS_P1;SDS_P2;PMS_P1;PMS_P2;Temp;Humidity;BMP_temperature;BMP_pressure;BME280_temperature;BME280_humidity;BME280_pressure;Samples;Min_cycle;Max_cycle;Signal;HPM_P1;HPM_P2
2022/10/13 00:01:10;;;;;;;70.65;21.15;;;;;;;11.86;100.00;101765.75;5013769;28;20031;-35
2022/10/13 00:03:37;;;;;;;74.85;23.23;;;;;;;11.86;100.00;101771.16;4996238;28;20044;-36
2022/10/13 00:06:06;;;;;;;72.43;21.00;;;;;;;11.88;100.00;101771.84;5013463;28;20026;-35
2022/10/13 00:08:31;;;;;;;64.55;21.85;;;;;;;11.90;100.00;101764.44;5013625;28;20041;-35
2022/10/13 00:10:59;;;;;;;55.63;21.35;;;;;;;11.91;100.00;101765.25;5013812;28;20038;-35
2022/10/13 00:13:25;;;;;;;66.30;22.00;;;;;;;11.92;100.00;101764.25;5013731;28;20036;-34
2022/10/13 00:15:50;;;;;;;62.25;22.27;;;;;;;11.94;100.00;101765.75;5008584;28;20441;-35
2022/10/13 00:18:15;;;;;;;48.25;21.50;;;;;;;11.95;100.00;101756.66;5004125;28;20061;-35
2022/10/13 00:20:47;;;;;;;61.38;22.92;;;;;;;11.95;100.00;101759.34;5013664;28;20473;-35
2022/10/13 00:23:13;;;;;;;65.32;21.90;;;;;;;11.97;100.00;101754.63;5013597;28;20057;-35
2022/10/13 00:25:41;;;;;;;64.97;23.58;;;;;;;11.98;100.00;101758.16;5010158;28;20116;-34
2022/10/13 00:28:06;;;;;;;68.47;23.70;;;;;;;12.00;100.00;101750.75;5013174;28;20071;-35
2022/10/13 00:30:35;;;;;;;72.10;23.70;;;;;;;12.02;100.00;101760.34;5013206;28;20033;-35
2022/10/13 00:33:01;;;;;;;66.38;24.48;;;;;;;12.04;100.00;101765.59;5012961;28;20057;-35
2022/10/13 00:35:26;;;;;;;71.47;26.15;;;;;;;12.02;100.00;101757.66;5013194;28;20056;-35
2022/10/13 00:37:52;;;;;;;77.55;25.90;;;;;;;12.05;100.00;101764.56;5013056;28;20048;-35
2022/10/13 00:40:17;;;;;;;66.97;25.25;;;;;;;12.05;100.00;101772.66;4995625;28;20068;-34
2022/10/13 00:42:43;;;;;;;79.22;28.00;;;;;;;12.05;100.00;101775.38;5013366;28;20459;-35
2022/10/13 00:45:27;;;;;;;69.93;26.17;;;;;;;12.06;100.00;101769.81;5012886;28;20022;-35
2022/10/13 00:47:57;;;;;;;79.85;25.85;;;;;;;12.07;100.00;101770.66;4995281;28;20030;-35
2022/10/13 00:50:27;;;;;;;72.45;28.05;;;;;;;12.10;100.00;101761.38;5011749;28;20025;-34
2022/10/13 00:52:53;;;;;;;65.68;26.05;;;;;;;12.11;100.00;101761.19;4994612;28;20045;-35
2022/10/13 00:55:21;;;;;;;73.60;28.60;;;;;;;12.11;100.00;101763.06;5012639;28;20047;-35
2022/10/13 00:57:53;;;;;;;73.03;28.00;;;;;;;12.13;100.00;101766.44;5013475;28;20026;-35
2022/10/13 01:00:19;;;;;;;64.18;27.30;;;;;;;12.14;100.00;101766.28;4995034;28;20034;-36
2022/10/13 01:02:44;;;;;;;80.32;29.65;;;;;;;12.14;100.00;101766.28;5012120;28;20022;-43
2022/10/13 01:05:10;;;;;;;86.72;28.38;;;;;;;12.12;100.00;101768.28;5012271;28;20030;-41
2022/10/13 01:07:35;;;;;;;82.55;29.38;;;;;;;12.07;100.00;101766.09;5012693;28;20045;-43
2022/10/13 01:10:01;;;;;;;93.07;31.20;;;;;;;12.02;100.00;101768.47;5012610;28;20033;-43
2022/10/13 01:13:00;;;;;;;92.10;31.70;;;;;;;11.98;100.00;101769.81;4994931;28;20381;-42
2022/10/13 01:15:30;;;;;;;98.18;32.20;;;;;;;11.96;100.00;101766.44;4994687;28;20060;-39
2022/10/13 01:18:14;;;;;;;96.70;34.85;;;;;;;11.92;100.00;101765.06;4978639;28;20033;-44
2022/10/13 01:20:48;;;;;;;101.43;34.15;;;;;;;11.90;100.00;101767.13;5012276;28;20084;-45
2022/10/13 01:23:34;;;;;;;92.70;32.97;;;;;;;11.88;100.00;101766.44;5012164;28;20105;-42
2022/10/13 01:26:13;;;;;;;97.97;34.28;;;;;;;11.88;100.00;101773.69;5012113;28;20041;-43
2022/10/13 01:28:44;;;;;;;97.97;35.20;;;;;;;11.86;100.00;101773.84;5012195;28;20092;-43
2022/10/13 01:31:18;;;;;;;107.82;35.08;;;;;;;11.85;100.00;101770.28;5010892;28;20175;-47
2022/10/13 01:34:09;;;;;;;112.13;35.60;;;;;;;11.85;100.00;101766.75;5009942;28;20026;-46
2022/10/13 01:36:46;;;;;;;101.85;36.95;;;;;;;11.85;100.00;101766.75;5003839;28;20038;-44
2022/10/13 01:39:37;;;;;;;101.50;36.42;;;;;;;11.85;100.00;101762.19;5012073;28;20108;-44
2022/10/13 01:42:12;;;;;;;108.10;37.63;;;;;;;11.86;100.00;101746.88;5010286;28;20362;-45
2022/10/13 01:44:40;;;;;;;113.05;37.47;;;;;;;11.85;100.00;101742.47;5011989;28;20448;-43
2022/10/13 01:47:07;;;;;;;104.97;37.83;;;;;;;11.85;100.00;101750.56;4993841;28;20121;-42
2022/10/13 01:49:33;;;;;;;105.75;36.88;;;;;;;11.83;100.00;101753.41;4994326;28;20056;-41
2022/10/13 01:52:02;;;;;;;108.50;40.67;;;;;;;11.83;100.00;101747.19;4993552;28;20505;-46
2022/10/13 01:54:27;;;;;;;110.85;39.85;;;;;;;11.81;100.00;101743.81;4993995;28;20176;-46
2022/10/13 01:56:53;;;;;;;113.63;39.35;;;;;;;11.82;100.00;101734.69;5011457;28;20125;-46
2022/10/13 01:59:19;;;;;;;105.50;39.42;;;;;;;11.80;100.00;101724.09;5012258;28;20030;-45
2022/10/13 02:01:47;;;;;;;119.60;38.97;;;;;;;11.79;100.00;101714.28;5010963;28;20040;-44
2022/10/13 02:04:27;;;;;;;;;;;;;;;11.79;100.00;101717.00;5012143;28;20429;-43
2022/10/13 02:07:00;;;;;;;100.28;37.80;;;;;;;11.78;100.00;101717.19;5005976;28;19921;-43
2022/10/13 02:09:34;;;;;;;114.70;39.85;;;;;;;11.79;100.00;101729.63;4993700;28;20034;-42
2022/10/13 02:12:04;;;;;;;113.75;39.03;;;;;;;11.79;100.00;101724.25;5000677;28;20120;-43
2022/10/13 02:14:33;;;;;;;112.78;39.22;;;;;;;11.78;100.00;101719.88;4995219;28;20112;-43
2022/10/13 02:17:02;;;;;;;111.55;38.38;;;;;;;11.80;100.00;101717.84;4993905;28;20029;-42
2022/10/13 02:19:27;;;;;;;107.50;38.47;;;;;;;11.79;100.00;101713.47;4994165;28;20048;-42
2022/10/13 02:21:53;;;;;;;104.63;38.13;;;;;;;11.84;100.00;101711.09;5011107;28;20038;-42
2022/10/13 02:24:18;;;;;;;101.93;38.25;;;;;;;11.82;100.00;101708.59;4993495;28;20038;-43
2022/10/13 02:26:44;;;;;;;117.88;38.55;;;;;;;11.82;100.00;101696.94;4993163;28;20470;-42
2022/10/13 02:29:12;;;;;;;112.72;39.55;;;;;;;11.81;100.00;101701.50;5010786;28;20044;-42
2022/10/13 02:31:38;;;;;;;124.25;38.92;;;;;;;11.82;100.00;101707.72;4993151;28;20030;-42
2022/10/13 02:34:04;;;;;;;124.22;41.75;;;;;;;11.80;100.00;101704.38;4993103;28;20136;-42
2022/10/13 02:36:29;;;;;;;115.15;39.22;;;;;;;11.83;100.00;101704.88;5010752;28;20042;-43
2022/10/13 02:38:55;;;;;;;111.95;40.70;;;;;;;11.82;100.00;101707.72;5010593;28;20030;-41
2022/10/13 02:41:20;;;;;;;121.68;43.85;;;;;;;11.84;100.00;101700.31;5010480;28;20042;-42
2022/10/13 02:43:45;;;;;;;120.75;42.70;;;;;;;11.85;100.00;101702.84;5010957;28;20088;-42
2022/10/13 02:46:11;;;;;;;125.88;43.35;;;;;;;11.87;100.00;101700.00;5010459;28;20022;-43
2022/10/13 02:48:36;;;;;;;157.68;47.53;;;;;;;11.89;100.00;101700.69;5011027;28;20064;-43
2022/10/13 02:51:02;;;;;;;131.82;47.05;;;;;;;11.91;100.00;101709.44;5010491;28;20069;-43
2022/10/13 02:53:27;;;;;;;141.63;46.65;;;;;;;11.90;100.00;101710.47;4992711;28;20496;-42
2022/10/13 02:55:52;;;;;;;128.18;44.83;;;;;;;11.91;100.00;101712.16;5010300;28;20124;-43
2022/10/13 02:58:18;;;;;;;121.80;44.40;;;;;;;11.92;100.00;101708.44;5010736;28;20021;-43
2022/10/13 03:00:43;;;;;;;133.68;44.42;;;;;;;11.91;100.00;101701.34;5010640;28;20056;-43
2022/10/13 03:03:10;;;;;;;130.73;44.00;;;;;;;11.92;100.00;101699.50;4992177;28;20409;-43
2022/10/13 03:05:35;;;;;;;120.82;41.33;;;;;;;11.92;100.00;101692.25;5010433;28;20026;-43
2022/10/13 03:08:01;;;;;;;118.28;40.90;;;;;;;11.95;100.00;101691.91;4992475;28;20054;-43
2022/10/13 03:10:27;;;;;;;112.47;39.65;;;;;;;11.95;100.00;101689.19;5010301;28;20026;-43
2022/10/13 03:12:53;;;;;;;116.70;39.65;;;;;;;11.96;100.00;101674.72;5009859;28;20030;-43
2022/10/13 03:15:19;;;;;;;123.65;38.50;;;;;;;11.98;100.00;101678.09;5009368;28;20030;-42
2022/10/13 03:17:44;;;;;;;117.45;39.45;;;;;;;11.98;100.00;101674.53;5008715;28;20379;-43
2022/10/13 03:20:10;;;;;;;117.63;39.47;;;;;;;11.98;100.00;101664.59;5010507;28;20022;-43
2022/10/13 03:22:35;;;;;;;108.55;38.67;;;;;;;12.01;100.00;101666.13;5010184;28;20048;-43
2022/10/13 03:25:00;;;;;;;111.88;37.97;;;;;;;12.00;100.00;101667.13;5009967;28;20109;-42
2022/10/13 03:27:26;;;;;;;112.88;38.28;;;;;;;12.00;100.00;101667.94;5009399;28;20030;-43
2022/10/13 03:29:51;;;;;;;113.68;38.55;;;;;;;12.00;100.00;101673.34;5010105;28;20344;-45
2022/10/13 03:36:01;;;;;;;110.70;40.20;;;;;;;11.98;100.00;101648.41;5011302;28;20096;-44
2022/10/13 03:38:27;;;;;;;106.43;39.13;;;;;;;11.98;100.00;101643.03;5009771;28;20040;-43
2022/10/13 03:40:52;;;;;;;122.47;40.58;;;;;;;11.98;100.00;101634.94;5010068;28;20058;-44
2022/10/13 03:43:18;;;;;;;129.27;40.70;;;;;;;11.98;100.00;101651.13;5009920;28;20421;-43
2022/10/13 03:45:43;;;;;;;127.85;42.05;;;;;;;11.98;100.00;101647.56;5009906;28;20537;-43
2022/10/13 03:48:08;;;;;;;129.82;41.20;;;;;;;11.99;100.00;101654.66;5010251;28;20057;-43
2022/10/13 03:50:34;;;;;;;122.53;42.33;;;;;;;11.97;100.00;101662.91;5009915;28;20481;-43
2022/10/13 03:52:59;;;;;;;114.82;40.25;;;;;;;11.98;100.00;101659.22;5009877;28;20034;-43
2022/10/13 03:55:25;;;;;;;123.13;43.20;;;;;;;12.00;100.00;101665.25;5009817;28;20030;-43
2022/10/13 03:57:50;;;;;;;137.30;43.15;;;;;;;12.01;100.00;101668.81;5009717;28;20121;-42
2022/10/13 04:00:15;;;;;;;121.90;41.72;;;;;;;12.00;100.00;101670.66;5009404;28;20026;-42
2022/10/13 04:02:41;;;;;;;121.55;44.40;;;;;;;12.02;100.00;101665.94;5009561;28;20477;-43
2022/10/13 04:05:06;;;;;;;152.05;46.83;;;;;;;12.05;100.00;101676.38;5009703;28;20025;-42
2022/10/13 04:07:32;;;;;;;155.07;45.70;;;;;;;12.04;100.00;101672.00;5010091;28;20057;-36
2022/10/13 04:09:57;;;;;;;121.43;44.25;;;;;;;12.02;100.00;101668.63;5009342;28;20053;-40
2022/10/13 04:12:22;;;;;;;156.13;47.22;;;;;;;12.01;100.00;101664.25;5010023;28;20485;-45
2022/10/13 04:14:48;;;;;;;156.95;47.47;;;;;;;11.99;100.00;101666.28;5009710;28;20053;-42
2022/10/13 04:17:13;;;;;;;137.82;47.47;;;;;;;11.98;100.00;101661.03;5009438;28;20030;-37
2022/10/13 04:19:38;;;;;;;190.38;48.13;;;;;;;11.98;100.00;101661.91;5009512;28;20124;-36
2022/10/13 04:22:04;;;;;;;145.13;47.50;;;;;;;11.94;100.00;101657.84;5001294;28;20034;-37
2022/10/13 04:24:29;;;;;;;139.43;47.70;;;;;;;11.94;100.00;101659.72;5009867;28;20022;-42
2022/10/13 04:26:54;;;;;;;152.30;47.78;;;;;;;11.95;100.00;101656.00;5008780;28;20062;-43
2022/10/13 04:29:21;;;;;;;151.13;49.03;;;;;;;11.94;100.00;101662.41;5007916;28;20029;-43
2022/10/13 04:31:46;;;;;;;146.27;48.97;;;;;;;11.92;100.00;101659.03;5012667;28;20105;-43
2022/10/13 04:34:11;;;;;;;153.23;49.75;;;;;;;11.91;100.00;101652.81;5006387;28;20148;-45
2022/10/13 04:36:37;;;;;;;153.50;51.60;;;;;;;11.90;100.00;101656.53;5012611;28;20053;-46
2022/10/13 04:39:03;;;;;;;148.00;49.17;;;;;;;11.91;100.00;101651.97;5012645;28;20022;-45
2022/10/13 04:41:28;;;;;;;153.65;48.08;;;;;;;11.91;100.00;101655.50;5012517;28;20045;-44
2022/10/13 04:43:53;;;;;;;153.93;48.08;;;;;;;11.91;100.00;101652.81;5012990;28;20034;-44
2022/10/13 04:46:22;;;;;;;147.65;48.38;;;;;;;11.91;100.00;101652.81;5012053;28;20029;-45
2022/10/13 04:48:48;;;;;;;168.73;49.40;;;;;;;11.90;100.00;101656.53;5011886;28;20026;-45
2022/10/13 04:51:16;;;;;;;171.27;50.78;;;;;;;11.90;100.00;101656.53;5012354;28;20045;-45
2022/10/13 04:53:41;;;;;;;155.55;49.50;;;;;;;11.91;100.00;101663.59;5012404;28;20488;-43
2022/10/13 04:56:10;;;;;;;154.85;49.88;;;;;;;11.90;100.00;101656.53;5012440;28;20049;-44
2022/10/13 04:58:36;;;;;;;154.80;50.92;;;;;;;11.90;100.00;101656.53;4995151;28;20036;-44
2022/10/13 05:01:03;;;;;;;172.88;50.47;;;;;;;11.91;100.00;101663.59;5012654;28;20470;-44
2022/10/13 05:03:28;;;;;;;160.13;50.72;;;;;;;11.94;100.00;101659.72;4994850;28;20042;-44
2022/10/13 05:05:53;;;;;;;173.45;50.72;;;;;;;11.93;100.00;101661.56;5012144;28;20022;-44
2022/10/13 05:08:19;;;;;;;168.70;50.28;;;;;;;11.94;100.00;101662.41;4991894;28;20054;-44
2022/10/13 05:10:59;;;;;;;165.23;51.90;;;;;;;11.96;100.00;101661.22;4993213;28;20069;-43
2022/10/13 05:13:24;;;;;;;171.00;52.53;;;;;;;11.97;100.00;101662.91;4993016;28;20044;-43
2022/10/13 05:15:50;;;;;;;171.15;52.05;;;;;;;11.98;100.00;101658.34;4991336;28;20030;-43
2022/10/13 05:18:15;;;;;;;170.35;51.78;;;;;;;11.98;100.00;101659.22;4992488;28;20117;-43
2022/10/13 05:20:41;;;;;;;167.63;49.92;;;;;;;11.97;100.00;101656.66;4991923;28;20074;-43
2022/10/13 05:23:06;;;;;;;171.50;51.72;;;;;;;11.98;100.00;101664.59;4992771;28;20496;-43
2022/10/13 05:25:33;;;;;;;166.80;50.42;;;;;;;11.98;100.00;101653.81;4992478;28;20026;-43
2022/10/13 05:27:59;;;;;;;163.70;50.47;;;;;;;12.00;100.00;101653.63;4992266;28;20026;-43
2022/10/13 05:30:25;;;;;;;181.27;51.20;;;;;;;12.01;100.00;101658.88;4991892;28;20497;-44
2022/10/13 05:32:50;;;;;;;161.82;50.53;;;;;;;12.02;100.00;101657.84;4994458;28;20050;-41
2022/10/13 05:35:15;;;;;;;171.93;51.33;;;;;;;12.04;100.00;101658.50;4987266;28;20034;-43
2022/10/13 05:37:41;;;;;;;158.20;50.40;;;;;;;12.05;100.00;101652.09;4990431;28;20096;-43
2022/10/13 05:40:07;;;;;;;165.73;50.72;;;;;;;12.06;100.00;101659.19;4990697;28;20053;-43
2022/10/13 05:42:34;;;;;;;163.73;49.15;;;;;;;12.07;100.00;101650.06;4992594;28;20030;-43
2022/10/13 05:44:59;;;;;;;170.90;49.80;;;;;;;12.07;100.00;101647.38;4989771;28;20572;-44
2022/10/13 05:47:27;;;;;;;158.18;51.85;;;;;;;12.11;100.00;101647.03;5005099;28;20038;-43
2022/10/13 05:49:53;;;;;;;172.98;51.33;;;;;;;12.11;100.00;101641.63;4992199;28;20084;-43
2022/10/13 05:52:19;;;;;;;161.40;50.45;;;;;;;12.11;100.00;101628.97;4992136;28;20049;-43
2022/10/13 05:54:47;;;;;;;168.10;52.13;;;;;;;12.11;100.00;101626.28;4991247;28;20071;-41
2022/10/13 05:57:23;;;;;;;173.35;50.72;;;;;;;12.13;100.00;101612.63;4992557;28;20041;-42
2022/10/13 06:00:07;;;;;;;157.10;51.10;;;;;;;12.13;100.00;101612.63;4991747;28;20080;-42
2022/10/13 06:02:40;;;;;;;167.82;50.25;;;;;;;12.13;100.00;101612.63;4988033;28;20033;-45
2022/10/13 06:05:07;;;;;;;166.13;49.60;;;;;;;12.14;100.00;101608.91;4975073;28;20120;-46
2022/10/13 06:07:32;;;;;;;152.50;49.23;;;;;;;12.13;100.00;101607.22;5003679;28;20050;-45
2022/10/13 06:09:58;;;;;;;172.43;51.78;;;;;;;12.13;100.00;101618.00;5011445;28;20030;-45
2022/10/13 06:12:23;;;;;;;162.18;51.03;;;;;;;12.13;100.00;101618.00;5010378;28;20125;-44
2022/10/13 06:14:49;;;;;;;148.00;50.60;;;;;;;12.13;100.00;101618.00;5011134;28;20041;-44
2022/10/13 06:17:14;;;;;;;159.35;51.10;;;;;;;12.14;100.00;101614.28;5009808;28;20053;-44
2022/10/13 06:19:40;;;;;;;147.68;49.78;;;;;;;12.16;100.00;101628.47;4993743;28;20543;-44
2022/10/13 06:22:05;;;;;;;159.00;49.42;;;;;;;12.17;100.00;101624.75;5011167;28;20045;-44
2022/10/13 06:24:30;;;;;;;160.30;51.50;;;;;;;12.19;100.00;101630.81;5010781;28;20029;-43
2022/10/13 06:26:56;;;;;;;157.43;49.95;;;;;;;12.18;100.00;101626.44;5011112;28;20049;-43
2022/10/13 06:29:21;;;;;;;139.60;46.67;;;;;;;12.18;100.00;101627.28;4993424;28;20362;-43
2022/10/13 06:31:47;;;;;;;150.52;48.00;;;;;;;12.23;100.00;101634.84;4991908;28;20080;-44
2022/10/13 06:34:12;;;;;;;153.50;49.85;;;;;;;12.24;100.00;101633.81;4991873;28;20026;-44
2022/10/13 06:36:37;;;;;;;168.98;50.75;;;;;;;12.23;100.00;101630.28;4992434;28;20038;-44
2022/10/13 06:39:03;;;;;;;165.10;52.58;;;;;;;12.26;100.00;101639.91;5010264;28;20117;-44
2022/10/13 06:41:28;;;;;;;164.82;55.28;;;;;;;12.23;100.00;101635.69;5010591;28;20109;-44
2022/10/13 06:43:53;;;;;;;162.73;54.97;;;;;;;12.23;100.00;101641.09;5010790;28;20578;-44
2022/10/13 06:46:19;;;;;;;168.63;53.72;;;;;;;12.23;100.00;101637.56;5010268;28;20431;-45
2022/10/13 06:48:44;;;;;;;177.60;55.28;;;;;;;12.27;100.00;101636.22;5009798;28;20036;-44
2022/10/13 06:51:10;;;;;;;165.70;55.60;;;;;;;12.29;100.00;101634.16;4992500;28;20034;-45
2022/10/13 06:53:36;;;;;;;165.55;52.65;;;;;;;12.32;100.00;101638.38;5010623;28;20045;-46
2022/10/13 06:56:04;;;;;;;171.45;54.03;;;;;;;12.31;100.00;101632.13;5018035;28;20115;-45
2022/10/13 06:58:29;;;;;;;159.23;53.17;;;;;;;12.30;100.00;101641.25;5011075;28;20037;-45
2022/10/13 07:00:55;;;;;;;140.82;49.63;;;;;;;12.34;100.00;101625.53;5008854;28;20425;-44
2022/10/13 07:03:21;;;;;;;171.48;51.20;;;;;;;12.33;100.00;101635.50;5009467;28;20034;-45
2022/10/13 07:05:46;;;;;;;147.02;49.03;;;;;;;12.34;100.00;101633.63;5009986;28;20092;-45
2022/10/13 07:08:12;;;;;;;143.32;47.47;;;;;;;12.36;100.00;101635.16;5010525;28;20133;-46
2022/10/13 07:10:38;;;;;;;138.02;47.00;;;;;;;12.35;100.00;101628.06;5010476;28;20030;-46
2022/10/13 07:13:03;;;;;;;140.43;45.75;;;;;;;12.37;100.00;101626.03;5009503;28;20033;-46
2022/10/13 07:15:29;;;;;;;141.43;47.25;;;;;;;12.36;100.00;101626.22;5009396;28;20052;-44
2022/10/13 07:17:54;;;;;;;136.40;45.53;;;;;;;12.37;100.00;101620.63;5004484;28;20116;-44
2022/10/13 07:20:21;;;;;;;134.82;44.55;;;;;;;12.38;100.00;101616.94;5024953;28;20068;-44
2022/10/13 07:22:46;;;;;;;140.00;45.65;;;;;;;12.43;100.00;101619.09;5009995;28;20121;-45
2022/10/13 07:25:12;;;;;;;124.00;44.40;;;;;;;12.48;100.00;101628.38;5009991;28;20103;-44
2022/10/13 07:27:39;;;;;;;133.25;45.42;;;;;;;12.51;100.00;101630.72;5010063;28;20029;-44
2022/10/13 07:30:06;;;;;;;120.72;43.67;;;;;;;12.58;100.00;101636.22;5010476;28;20018;-44
2022/10/13 07:32:31;;;;;;;116.93;41.75;;;;;;;12.63;100.00;101635.72;5008068;28;20021;-43
2022/10/13 07:34:57;;;;;;;132.35;43.00;;;;;;;12.72;100.00;101621.16;5010395;28;20459;-43
2022/10/13 07:37:22;;;;;;;115.43;39.78;;;;;;;12.71;100.00;101628.41;5008704;28;20029;-41
2022/10/13 07:39:47;;;;;;;118.63;38.40;;;;;;;12.78;100.00;101617.75;5010443;28;20440;-40
2022/10/13 07:42:13;;;;;;;96.13;37.28;;;;;;;12.79;100.00;101623.97;5010227;28;20478;-41
2022/10/13 07:44:39;;;;;;;114.57;36.88;;;;;;;12.76;100.00;101619.78;5010338;28;20081;-40
2022/10/13 07:47:04;;;;;;;111.72;39.58;;;;;;;12.85;100.00;101607.91;5009580;28;20054;-42
2022/10/13 07:49:30;;;;;;;100.97;36.17;;;;;;;12.92;100.00;101616.97;5010317;28;20030;-38
2022/10/13 07:51:56;;;;;;;106.03;36.10;;;;;;;12.91;100.00;101628.81;5009419;28;20437;-42
2022/10/13 07:54:21;;;;;;;98.75;34.63;;;;;;;12.90;100.00;101632.53;5009869;28;20033;-42
2022/10/13 07:56:50;;;;;;;105.90;36.92;;;;;;;12.93;100.00;101629.47;5009933;28;20153;-43
2022/10/13 07:59:15;;;;;;;105.88;34.22;;;;;;;13.02;100.00;101632.13;5009928;28;20026;-43
2022/10/13 08:01:41;;;;;;;83.60;30.73;;;;;;;12.96;100.00;101634.53;5011976;28;20041;-43
2022/10/13 08:04:06;;;;;;;107.57;34.28;;;;;;;12.92;100.00;101635.03;5013076;28;20036;-43
2022/10/13 08:06:32;;;;;;;97.32;31.77;;;;;;;12.91;100.00;101633.38;5013666;28;20061;-44
2022/10/13 08:08:59;;;;;;;102.35;32.33;;;;;;;12.93;100.00;101626.78;5011741;28;20030;-43
2022/10/13 08:11:24;;;;;;;94.70;32.40;;;;;;;12.96;100.00;101625.56;5013152;28;20025;-43
2022/10/13 08:13:50;;;;;;;96.13;33.53;;;;;;;13.00;100.00;101626.06;5013523;28;20045;-43
2022/10/13 08:16:16;;;;;;;104.45;33.50;;;;;;;13.08;100.00;101636.81;5013059;28;20022;-44
2022/10/13 08:18:42;;;;;;;84.10;32.55;;;;;;;13.14;100.00;101633.41;5013400;28;20029;-44
2022/10/13 08:21:09;;;;;;;80.95;31.52;;;;;;;13.15;100.00;101626.97;5012458;28;20065;-45
2022/10/13 08:23:34;;;;;;;83.17;31.53;;;;;;;13.15;100.00;101626.97;5003672;28;20026;-40
2022/10/13 08:25:59;;;;;;;98.40;32.30;;;;;;;13.12;100.00;101630.03;5010817;28;20277;-41
2022/10/13 08:28:29;;;;;;;83.47;30.17;;;;;;;13.13;100.00;101624.44;5017885;28;20026;-40
2022/10/13 08:30:58;;;;;;;86.50;29.08;;;;;;;13.06;100.00;101609.09;5012082;28;20022;-41
2022/10/13 08:33:25;;;;;;;73.97;28.40;;;;;;;12.99;100.00;101616.28;5010982;28;20026;-42
2022/10/13 08:35:51;;;;;;;81.43;28.67;;;;;;;12.96;100.00;101622.88;5016838;28;20058;-41
2022/10/13 08:38:16;;;;;;;73.10;29.92;;;;;;;13.04;100.00;101619.28;5013481;28;20045;-40
2022/10/13 08:40:48;;;;;;;84.95;30.67;;;;;;;13.14;100.00;101614.50;5012315;28;20021;-42
2022/10/13 08:43:17;;;;;;;87.20;30.80;;;;;;;13.22;100.00;101614.44;5012864;28;20041;-40
2022/10/13 08:45:42;;;;;;;75.72;29.83;;;;;;;13.23;100.00;101613.38;4994905;28;20022;-41
2022/10/13 08:48:13;;;;;;;85.78;31.33;;;;;;;13.23;100.00;101616.09;5012842;28;20105;-42
2022/10/13 08:50:41;;;;;;;91.72;29.85;;;;;;;13.19;100.00;101630.97;5008429;28;20038;-42
2022/10/13 08:53:11;;;;;;;;;;;;;;;13.17;100.00;101624.94;5013022;28;20021;-40
2022/10/13 08:55:43;;;;;;;88.45;30.05;;;;;;;13.13;100.00;101634.41;5009796;28;19918;-41
2022/10/13 08:58:12;;;;;;;89.88;30.50;;;;;;;13.04;100.00;101638.19;4993444;28;20030;-40
2022/10/13 09:00:37;;;;;;;83.68;29.80;;;;;;;12.95;100.00;101632.84;4991900;28;20018;-43
2022/10/13 09:03:21;;;;;;;70.68;28.52;;;;;;;13.00;100.00;101626.06;4994376;28;20060;-42
2022/10/13 09:05:58;;;;;;;70.70;28.90;;;;;;;13.03;100.00;101626.53;5010736;28;20040;-43
2022/10/13 09:08:24;;;;;;;78.30;30.08;;;;;;;13.03;100.00;101629.22;5008946;28;20045;-43
2022/10/13 09:10:50;;;;;;;79.05;29.00;;;;;;;13.04;100.00;101620.13;5012156;28;20036;-43
2022/10/13 09:13:16;;;;;;;76.15;30.20;;;;;;;13.14;100.00;101631.53;5011265;28;20341;-44
2022/10/13 09:15:46;;;;;;;76.20;30.52;;;;;;;13.14;100.00;101622.59;4992057;28;20026;-44
2022/10/13 09:18:12;;;;;;;73.22;30.38;;;;;;;13.19;100.00;101620.16;4975392;28;20027;-43
2022/10/13 09:20:39;;;;;;;75.13;29.80;;;;;;;13.16;100.00;101631.34;4992943;28;20482;-44
2022/10/13 09:23:18;;;;;;;70.78;29.58;;;;;;;13.12;100.00;101624.63;5007355;28;20042;-44
2022/10/13 09:25:47;;;;;;;69.35;30.00;;;;;;;13.15;100.00;101624.25;5012535;28;20543;-43
2022/10/13 09:28:25;;;;;;;76.32;30.08;;;;;;;13.17;100.00;101620.38;4994336;28;20168;-44
2022/10/13 09:31:16;;;;;;;83.13;30.63;;;;;;;13.18;100.00;101613.09;5009987;28;20026;-44
2022/10/13 09:33:42;;;;;;;89.88;33.03;;;;;;;13.23;100.00;101610.69;5011241;28;20034;-44
2022/10/13 09:36:13;;;;;;;75.10;31.90;;;;;;;13.21;100.00;101611.88;5012267;28;20030;-44
2022/10/13 09:38:40;;;;;;;84.20;32.22;;;;;;;13.22;100.00;101602.75;5011847;28;20065;-44
2022/10/13 09:41:13;;;;;;;76.13;31.95;;;;;;;13.24;100.00;101601.53;5012277;28;20101;-44
2022/10/13 09:43:44;;;;;;;75.40;31.80;;;;;;;13.28;100.00;101597.50;4994597;28;20435;-44
2022/10/13 09:46:31;;;;;;;87.53;33.40;;;;;;;13.35;100.00;101600.34;5008975;28;20040;-44
2022/10/13 09:48:59;;;;;;;85.07;32.22;;;;;;;13.49;100.00;101598.69;4992295;28;20076;-44
2022/10/13 09:51:33;;;;;;;87.38;34.83;;;;;;;13.63;100.00;101611.41;5007062;28;20038;-43
2022/10/13 09:53:58;;;;;;;87.45;34.50;;;;;;;13.65;100.00;101605.81;4998546;28;20033;-44
2022/10/13 09:56:41;;;;;;;98.90;35.42;;;;;;;13.64;100.00;101609.53;5015388;28;20026;-45
2022/10/13 09:59:13;;;;;;;92.72;37.25;;;;;;;13.66;100.00;101604.78;4977823;28;20029;-44
2022/10/13 10:01:42;;;;;;;98.68;38.70;;;;;;;13.71;100.00;101608.59;5009316;28;20026;-44
2022/10/13 10:04:25;;;;;;;104.80;40.97;;;;;;;13.71;100.00;101603.19;5010049;28;20076;-44
2022/10/13 10:06:50;;;;;;;95.05;39.88;;;;;;;13.66;100.00;101592.09;5011464;28;20045;-45
2022/10/13 10:09:32;;;;;;;99.90;40.50;;;;;;;13.73;100.00;101600.31;5010547;28;20034;-44
2022/10/13 10:11:58;;;;;;;91.40;40.13;;;;;;;13.90;100.00;101600.97;5010054;28;20030;-44
2022/10/13 10:14:32;;;;;;;103.93;41.58;;;;;;;13.78;100.00;101590.63;5010642;28;20037;-44
2022/10/13 10:17:29;;;;;;;89.90;38.83;;;;;;;13.66;100.00;101585.84;5010534;28;20056;-44
2022/10/13 10:20:17;;;;;;;84.05;37.65;;;;;;;13.78;100.00;101585.22;4985707;28;20057;-43
2022/10/13 10:22:59;;;;;;;101.72;39.53;;;;;;;13.75;100.00;101582.88;5005994;28;20038;-44
2022/10/13 10:25:32;;;;;;;85.80;37.97;;;;;;;13.72;100.00;101580.56;4976541;28;20033;-43
2022/10/13 10:28:28;;;;;;;104.03;38.65;;;;;;;13.64;100.00;101575.22;4976496;28;20509;-44
2022/10/13 10:31:24;;;;;;;96.97;40.30;;;;;;;13.67;100.00;101574.84;5009953;28;20030;-44
2022/10/13 10:34:27;;;;;;;106.20;40.55;;;;;;;13.69;100.00;101575.50;5010499;28;20112;-43
2022/10/13 10:37:18;;;;;;;104.28;42.13;;;;;;;13.66;100.00;101575.84;5012463;28;20037;-45
2022/10/13 10:39:46;;;;;;;102.15;42.05;;;;;;;13.61;100.00;101571.03;5010828;28;20045;-43
2022/10/13 10:42:42;;;;;;;96.20;41.42;;;;;;;13.72;100.00;101567.03;5012162;28;20037;-44
2022/10/13 10:45:21;;;;;;;108.50;40.70;;;;;;;13.83;100.00;101563.84;5009831;28;20045;-44
2022/10/13 10:47:50;;;;;;;96.88;41.80;;;;;;;13.84;100.00;101568.22;5009652;28;20436;-45
2022/10/13 10:50:17;;;;;;;104.75;42.08;;;;;;;13.82;100.00;101578.41;5009660;28;20054;-45
2022/10/13 10:52:49;;;;;;;112.77;43.03;;;;;;;13.71;100.00;101576.16;5010935;28;20405;-39
2022/10/13 10:55:20;;;;;;;110.75;41.78;;;;;;;13.69;100.00;101575.50;5010710;28;20050;-42
2022/10/13 10:58:19;;;;;;;99.13;43.28;;;;;;;13.66;100.00;101567.75;5011249;28;20473;-43
2022/10/13 11:01:09;;;;;;;102.00;39.28;;;;;;;13.64;100.00;101566.25;5010502;28;20048;-43
2022/10/13 11:03:42;;;;;;;92.90;37.63;;;;;;;13.63;100.00;101562.72;5010969;28;20034;-44
2022/10/13 11:06:16;;;;;;;98.38;38.70;;;;;;;13.64;100.00;101560.84;5010837;28;20172;-45
2022/10/13 11:08:45;;;;;;;93.93;38.22;;;;;;;13.56;100.00;101546.41;5010643;28;20045;-46